Terminal Aerodrome Forecast
Issued by NWS

Home | Current Version | Previous Version | Text Only | Print | Product List | Glossary On
Versions: 1 2 3 4 5 6 7 8 9 10 11 12 13
000
FTAK31 PAJN 011100
TAFAYA
TAF
PAYA 011120Z 0112/0212 00000KT P6SM VCSH BKN035 BKN080
      TEMPO 0112/0116 4SM -SHRA OVC025
     FM012100 11007KT P6SM VCSH BKN050 BKN080
     FM020300 08006KT P6SM SCT050 OVC100 PROB30 0206/0212 -RA
      AMD LTD TO CLD VIS AND WIND 0201/0210=

USA.gov is the U.S. government's official web portal to all federal, state and local government web resources and services.